Time;durP1;ratioP1;P1;durP2;ratioP2;P2;SDS_P1;SDS_P2;PMS_P1;PMS_P2;Temp;Humidity;BMP_temperature;BMP_pressure;BME280_temperature;BME280_humidity;BME280_pressure;Samples;Min_cycle;Max_cycle;Signal;HPM_P1;HPM_P2
2021/08/18 00:00:43;;;;;;;14.83;7.30;;;15.60;99.90;;;;;;4394175;32;20590;-62
2021/08/18 00:03:10;;;;;;;10.77;7.57;;;15.60;99.90;;;;;;4392973;32;20184;-62
2021/08/18 00:05:39;;;;;;;11.57;8.07;;;15.60;99.90;;;;;;4392957;32;20172;-63
2021/08/18 00:08:07;;;;;;;10.90;7.80;;;15.60;99.90;;;;;;4394158;32;20156;-62
2021/08/18 00:10:35;;;;;;;13.23;8.33;;;15.60;99.90;;;;;;4392534;32;20155;-62
2021/08/18 00:13:04;;;;;;;9.80;7.20;;;15.60;99.90;;;;;;4393083;32;20171;-62
2021/08/18 00:15:31;;;;;;;17.40;8.93;;;15.60;99.90;;;;;;4392670;32;20232;-63
2021/08/18 00:18:00;;;;;;;15.87;8.07;;;15.60;99.90;;;;;;4394484;32;20603;-62
2021/08/18 00:20:28;;;;;;;9.47;6.60;;;15.60;99.90;;;;;;4392994;32;20213;-64
2021/08/18 00:22:54;;;;;;;14.87;8.30;;;15.60;99.90;;;;;;4392462;32;20560;-62
2021/08/18 00:25:21;;;;;;;12.00;8.03;;;15.60;99.90;;;;;;4391888;32;20296;-64
2021/08/18 00:27:48;;;;;;;10.20;7.53;;;15.60;99.90;;;;;;4393640;32;20166;-63
2021/08/18 00:30:15;;;;;;;13.60;8.07;;;15.60;99.90;;;;;;4392311;32;20238;-62
2021/08/18 00:32:42;;;;;;;12.27;8.17;;;15.60;99.90;;;;;;4392910;32;20222;-62
2021/08/18 00:35:11;;;;;;;15.33;7.93;;;15.60;99.90;;;;;;4393878;32;20190;-62
2021/08/18 00:37:38;;;;;;;11.60;8.70;;;15.60;99.90;;;;;;4394496;32;20176;-61
2021/08/18 00:40:06;;;;;;;14.70;8.77;;;15.60;99.90;;;;;;4392295;32;20160;-62
2021/08/18 00:42:34;;;;;;;13.97;8.80;;;15.60;99.90;;;;;;4394292;32;20171;-62
2021/08/18 00:45:01;;;;;;;12.80;8.87;;;15.60;99.90;;;;;;4392962;32;20181;-62
2021/08/18 00:47:27;;;;;;;11.17;7.27;;;15.60;99.90;;;;;;4394333;32;20200;-62
2021/08/18 00:49:55;;;;;;;15.00;7.83;;;15.50;99.90;;;;;;4393580;32;20215;-62
2021/08/18 00:52:23;;;;;;;15.30;8.10;;;15.50;99.90;;;;;;4394196;32;20615;-62
2021/08/18 00:54:51;;;;;;;10.70;7.70;;;15.50;99.90;;;;;;4392297;32;20212;-62
2021/08/18 00:57:17;;;;;;;15.20;7.87;;;15.50;99.90;;;;;;4393063;32;20220;-62
2021/08/18 00:59:44;;;;;;;13.53;7.80;;;15.50;99.90;;;;;;4392909;32;20209;-63
2021/08/18 01:02:11;;;;;;;11.07;6.80;;;15.50;99.90;;;;;;4393744;32;20230;-62
2021/08/18 01:04:38;;;;;;;9.47;6.57;;;15.50;99.90;;;;;;4393060;32;20235;-63
2021/08/18 01:07:06;;;;;;;10.93;7.00;;;15.50;99.90;;;;;;4392547;32;20212;-63
2021/08/18 01:09:35;;;;;;;13.87;7.17;;;15.50;99.90;;;;;;4393502;32;20483;-62
2021/08/18 01:12:02;;;;;;;11.97;7.00;;;15.50;99.90;;;;;;4392951;32;20531;-63
2021/08/18 01:14:29;;;;;;;13.73;7.13;;;15.50;99.90;;;;;;4392234;32;20208;-63
2021/08/18 01:16:56;;;;;;;10.70;7.27;;;15.50;99.90;;;;;;4392058;32;20192;-65
2021/08/18 01:19:22;;;;;;;11.00;6.50;;;15.50;99.90;;;;;;4392177;32;20152;-63
2021/08/18 01:21:50;;;;;;;11.10;7.20;;;15.50;99.90;;;;;;4393294;32;20172;-62
2021/08/18 01:24:19;;;;;;;11.80;5.03;;;15.50;99.90;;;;;;4392317;32;20164;-63
2021/08/18 01:26:48;;;;;;;8.63;5.03;;;15.40;99.90;;;;;;4391805;32;20164;-64
2021/08/18 01:29:16;;;;;;;8.10;4.60;;;15.40;99.90;;;;;;4393353;32;20212;-63
2021/08/18 01:31:43;;;;;;;8.37;4.90;;;15.30;99.90;;;;;;4392394;32;20166;-62
2021/08/18 01:34:10;;;;;;;4.93;4.10;;;15.40;99.90;;;;;;4390999;32;20215;-61
2021/08/18 01:36:39;;;;;;;7.07;3.87;;;15.30;99.90;;;;;;4393659;32;20204;-63
2021/08/18 01:39:09;;;;;;;8.07;3.77;;;15.30;99.90;;;;;;4391822;32;20207;-64
2021/08/18 01:41:37;;;;;;;7.23;3.90;;;15.20;99.90;;;;;;4392059;32;20155;-62
2021/08/18 01:44:04;;;;;;;6.47;3.73;;;15.20;99.90;;;;;;4391201;32;20180;-62
2021/08/18 01:46:32;;;;;;;7.33;3.67;;;15.20;99.90;;;;;;4392200;32;20512;-62
2021/08/18 01:48:59;;;;;;;7.07;3.10;;;15.20;99.90;;;;;;4391623;32;20156;-61
2021/08/18 01:51:26;;;;;;;7.23;2.77;;;15.20;99.90;;;;;;4391358;32;20194;-61
2021/08/18 01:53:53;;;;;;;6.23;2.90;;;15.10;99.90;;;;;;4392095;32;20212;-62
2021/08/18 01:56:20;;;;;;;7.23;3.43;;;15.20;99.90;;;;;;4391489;32;20507;-62
2021/08/18 01:58:49;;;;;;;6.63;3.30;;;15.10;99.90;;;;;;4391705;32;20152;-62
2021/08/18 02:01:18;;;;;;;4.10;2.93;;;15.10;99.90;;;;;;4392983;32;20174;-65
2021/08/18 02:03:46;;;;;;;7.13;3.13;;;15.20;99.90;;;;;;4393189;32;20194;-62
2021/08/18 02:06:15;;;;;;;4.67;3.00;;;15.20;99.90;;;;;;4391735;32;20504;-65
2021/08/18 02:08:42;;;;;;;3.80;3.10;;;15.20;99.90;;;;;;4391549;32;20651;-63
2021/08/18 02:11:09;;;;;;;4.80;3.10;;;15.20;99.90;;;;;;4390589;32;20195;-65
2021/08/18 02:13:36;;;;;;;7.07;3.40;;;15.20;99.90;;;;;;4392243;32;20504;-61
2021/08/18 02:16:03;;;;;;;5.60;3.40;;;15.20;99.90;;;;;;4391339;32;20232;-63
2021/08/18 02:18:30;;;;;;;4.43;3.70;;;15.20;99.90;;;;;;4391136;32;20172;-62
2021/08/18 02:21:02;;;;;;;6.37;3.50;;;15.20;99.90;;;;;;4391484;32;20149;-64
2021/08/18 02:23:28;;;;;;;6.77;3.97;;;15.20;99.90;;;;;;4392132;32;20171;-63
2021/08/18 02:25:55;;;;;;;6.97;4.07;;;15.20;99.90;;;;;;4391768;32;20603;-63
2021/08/18 02:28:25;;;;;;;8.50;4.13;;;15.20;99.90;;;;;;4392751;32;20152;-60
2021/08/18 02:30:52;;;;;;;4.27;3.87;;;15.20;99.90;;;;;;4390131;32;20194;-63
2021/08/18 02:33:24;;;;;;;5.53;3.80;;;15.20;99.90;;;;;;4392998;32;20152;-63
2021/08/18 02:35:51;;;;;;;5.33;3.83;;;15.20;99.90;;;;;;4391267;32;20156;-63
2021/08/18 02:38:19;;;;;;;5.83;4.33;;;15.30;99.90;;;;;;4391472;32;20160;-62
2021/08/18 02:40:46;;;;;;;8.37;4.30;;;15.30;99.90;;;;;;4390661;32;20219;-61
2021/08/18 02:43:13;;;;;;;13.90;5.90;;;15.30;99.90;;;;;;4390710;32;20225;-62
2021/08/18 02:45:40;;;;;;;10.00;6.37;;;15.30;99.90;;;;;;4392866;32;20179;-62
2021/08/18 02:48:06;;;;;;;11.03;6.97;;;15.30;99.90;;;;;;4391686;32;20151;-60
2021/08/18 02:50:33;;;;;;;10.73;6.83;;;15.30;99.90;;;;;;4391231;32;20153;-62
2021/08/18 02:53:00;;;;;;;10.57;7.37;;;15.30;99.90;;;;;;4391024;32;20186;-61
2021/08/18 02:55:29;;;;;;;12.53;8.47;;;15.30;99.90;;;;;;4392739;32;20171;-61
2021/08/18 02:57:56;;;;;;;9.93;6.83;;;15.20;99.90;;;;;;4390316;32;20171;-63
2021/08/18 03:00:23;;;;;;;8.13;6.43;;;15.30;99.90;;;;;;4390653;32;20168;-62
2021/08/18 03:02:51;;;;;;;12.97;8.00;;;15.30;99.90;;;;;;4392179;32;20156;-62
2021/08/18 03:05:17;;;;;;;8.80;6.23;;;15.30;99.90;;;;;;4392218;32;20188;-63
2021/08/18 03:07:44;;;;;;;13.03;7.13;;;15.30;99.90;;;;;;4390079;32;20234;-62
2021/08/18 03:10:11;;;;;;;13.00;6.07;;;15.40;99.90;;;;;;4392345;32;20167;-62
2021/08/18 03:12:40;;;;;;;10.67;6.90;;;15.40;99.90;;;;;;4390505;32;20160;-62
2021/08/18 03:15:08;;;;;;;8.07;6.40;;;15.40;99.90;;;;;;4390398;32;20616;-63
2021/08/18 03:17:35;;;;;;;13.10;7.87;;;15.40;99.90;;;;;;4390458;32;20164;-62
2021/08/18 03:20:01;;;;;;;8.00;6.40;;;15.50;99.90;;;;;;4392458;32;20624;-62
2021/08/18 03:22:28;;;;;;;9.17;6.63;;;15.40;99.90;;;;;;4389981;32;20176;-62
2021/08/18 03:24:55;;;;;;;11.20;7.17;;;15.50;99.90;;;;;;4390574;32;20513;-63
2021/08/18 03:27:22;;;;;;;11.67;6.63;;;15.50;99.90;;;;;;4390197;32;20234;-62
2021/08/18 03:29:51;;;;;;;11.67;7.27;;;15.50;99.90;;;;;;4390861;32;20654;-65
2021/08/18 03:32:18;;;;;;;8.53;6.17;;;15.50;99.90;;;;;;4392343;32;20190;-62
2021/08/18 03:34:45;;;;;;;9.67;6.27;;;15.50;99.90;;;;;;4389842;32;20208;-62
2021/08/18 03:37:12;;;;;;;7.87;5.80;;;15.50;99.90;;;;;;4389688;32;20164;-64
2021/08/18 03:39:39;;;;;;;13.40;6.00;;;15.50;99.90;;;;;;4390248;32;20148;-64
2021/08/18 03:42:06;;;;;;;7.57;5.90;;;15.50;99.90;;;;;;4390352;32;20160;-63
2021/08/18 03:44:33;;;;;;;8.87;6.30;;;15.40;99.90;;;;;;4390404;32;20208;-62
2021/08/18 03:47:01;;;;;;;12.47;6.27;;;15.40;99.90;;;;;;4390570;32;20439;-64
2021/08/18 03:49:28;;;;;;;11.77;6.80;;;15.40;99.90;;;;;;4391981;32;20220;-65
2021/08/18 03:51:55;;;;;;;13.83;6.60;;;15.40;99.90;;;;;;4390371;32;20155;-62
2021/08/18 03:54:21;;;;;;;9.10;5.80;;;15.50;99.90;;;;;;4387648;32;20243;-64
2021/08/18 03:56:48;;;;;;;12.33;5.70;;;15.40;99.90;;;;;;4392017;32;20140;-61
2021/08/18 03:59:15;;;;;;;8.90;6.20;;;15.50;99.90;;;;;;4389998;32;20184;-62
2021/08/18 04:01:42;;;;;;;8.13;5.53;;;15.50;99.90;;;;;;4390405;32;20164;-64
2021/08/18 04:04:13;;;;;;;10.17;5.97;;;15.50;99.90;;;;;;4389494;32;20223;-64
2021/08/18 04:06:40;;;;;;;7.93;5.37;;;15.50;99.90;;;;;;4391154;32;20472;-63
2021/08/18 04:09:09;;;;;;;9.67;5.63;;;15.50;99.90;;;;;;4390273;32;20194;-62
2021/08/18 04:11:36;;;;;;;12.10;5.80;;;15.50;99.90;;;;;;4389855;32;20223;-62
2021/08/18 04:14:05;;;;;;;7.73;5.03;;;15.50;99.90;;;;;;4392030;32;20658;-63
2021/08/18 04:16:33;;;;;;;5.93;4.67;;;15.60;99.90;;;;;;4389737;32;20538;-63
2021/08/18 04:19:00;;;;;;;7.80;4.70;;;15.60;99.90;;;;;;4390186;32;20148;-65
2021/08/18 04:21:28;;;;;;;10.20;5.77;;;15.60;99.90;;;;;;4391578;32;20183;-63
2021/08/18 04:23:55;;;;;;;8.80;5.80;;;15.60;99.90;;;;;;4390445;32;20167;-62
2021/08/18 04:26:21;;;;;;;9.43;5.70;;;15.60;99.90;;;;;;4389862;32;20241;-62
2021/08/18 04:28:48;;;;;;;9.50;4.67;;;15.60;99.90;;;;;;4390350;32;20172;-62
2021/08/18 04:31:18;;;;;;;7.93;5.80;;;15.60;99.90;;;;;;4390397;32;20171;-62
2021/08/18 04:33:45;;;;;;;7.80;5.43;;;15.60;99.90;;;;;;4392177;32;20200;-63
2021/08/18 04:36:12;;;;;;;12.47;5.70;;;15.60;99.90;;;;;;4392595;32;20160;-62
2021/08/18 04:38:40;;;;;;;11.17;5.70;;;15.60;99.90;;;;;;4393016;32;20176;-64
2021/08/18 04:41:07;;;;;;;7.97;5.03;;;15.60;99.90;;;;;;4393404;32;20175;-63
2021/08/18 04:43:33;;;;;;;6.80;4.67;;;15.60;99.90;;;;;;4392468;32;20215;-62
2021/08/18 04:46:00;;;;;;;6.93;4.30;;;15.60;99.90;;;;;;4393836;32;20198;-62
2021/08/18 04:48:27;;;;;;;5.87;3.83;;;15.60;99.90;;;;;;4392630;32;20187;-62
2021/08/18 04:50:54;;;;;;;5.23;3.67;;;15.60;99.90;;;;;;4392160;32;20223;-65
2021/08/18 04:53:21;;;;;;;7.80;4.20;;;15.60;99.90;;;;;;4392802;32;20168;-62
2021/08/18 04:55:50;;;;;;;4.87;3.47;;;15.60;99.90;;;;;;4392404;32;20187;-63
2021/08/18 04:58:17;;;;;;;6.73;4.40;;;15.60;99.90;;;;;;4394422;32;20176;-63
2021/08/18 05:00:43;;;;;;;6.37;3.93;;;15.60;99.90;;;;;;4391551;32;20654;-63
2021/08/18 05:03:13;;;;;;;4.30;3.60;;;15.60;99.90;;;;;;4391714;32;20169;-63
2021/08/18 05:05:40;;;;;;;6.33;3.70;;;15.60;99.90;;;;;;4391732;32;20164;-61
2021/08/18 05:08:07;;;;;;;6.93;3.43;;;15.70;99.90;;;;;;4392427;32;20203;-64
2021/08/18 05:10:34;;;;;;;4.23;3.33;;;15.70;99.90;;;;;;4392057;32;20569;-62
2021/08/18 05:13:03;;;;;;;4.10;3.20;;;15.70;99.90;;;;;;4393298;32;20618;-62
2021/08/18 05:15:30;;;;;;;4.40;3.70;;;15.80;99.90;;;;;;4391903;32;20624;-62
2021/08/18 05:17:57;;;;;;;5.10;3.13;;;15.80;99.90;;;;;;4392006;32;20153;-61
2021/08/18 05:20:24;;;;;;;4.07;3.03;;;15.80;99.90;;;;;;4391041;32;20248;-62
2021/08/18 05:22:52;;;;;;;4.23;3.23;;;15.80;99.90;;;;;;4391926;32;20161;-62
2021/08/18 05:25:19;;;;;;;5.93;3.23;;;15.80;99.90;;;;;;4392360;32;20186;-60
2021/08/18 05:27:48;;;;;;;4.27;3.13;;;15.90;99.90;;;;;;4391448;32;20172;-62
2021/08/18 05:30:17;;;;;;;4.50;3.10;;;15.90;99.90;;;;;;4392082;32;20204;-62
2021/08/18 05:32:45;;;;;;;2.87;2.43;;;15.90;99.90;;;;;;4393296;32;20164;-62
2021/08/18 05:35:14;;;;;;;4.07;2.90;;;15.90;99.90;;;;;;4391097;32;20183;-62
2021/08/18 05:37:45;;;;;;;3.20;2.67;;;15.90;99.90;;;;;;4393300;32;20157;-61
2021/08/18 05:40:11;;;;;;;2.97;2.53;;;16.00;99.90;;;;;;4391486;32;20160;-63
2021/08/18 05:42:38;;;;;;;3.27;2.70;;;16.00;99.90;;;;;;4391764;32;20186;-64
2021/08/18 05:45:07;;;;;;;5.23;2.63;;;16.00;99.90;;;;;;4391255;32;20215;-62
2021/08/18 05:47:35;;;;;;;5.03;2.67;;;16.10;99.90;;;;;;4393019;32;20191;-64
2021/08/18 05:50:02;;;;;;;4.97;3.33;;;16.10;99.90;;;;;;4390425;32;20182;-64
2021/08/18 05:52:28;;;;;;;4.20;3.20;;;16.10;99.90;;;;;;4392923;32;20160;-61
2021/08/18 05:55:00;;;;;;;3.37;2.67;;;16.20;99.90;;;;;;4392646;32;20192;-64
2021/08/18 05:57:27;;;;;;;6.90;2.93;;;16.20;99.90;;;;;;4391463;32;20212;-63
2021/08/18 05:59:55;;;;;;;5.03;3.00;;;16.30;99.90;;;;;;4391740;32;20204;-62
2021/08/18 06:02:21;;;;;;;5.60;2.73;;;16.30;99.90;;;;;;4387823;32;20174;-60
2021/08/18 06:04:50;;;;;;;3.47;2.90;;;16.30;99.90;;;;;;4390096;32;20219;-63
2021/08/18 06:07:16;;;;;;;4.00;3.00;;;16.30;99.90;;;;;;4392755;32;20160;-61
2021/08/18 06:09:43;;;;;;;4.67;3.00;;;16.40;99.90;;;;;;4391863;32;20198;-62
2021/08/18 06:12:10;;;;;;;4.77;2.83;;;16.40;99.90;;;;;;4386699;32;20176;-63
2021/08/18 06:14:37;;;;;;;3.40;3.00;;;16.40;99.90;;;;;;4392126;32;20160;-63
2021/08/18 06:17:04;;;;;;;4.53;2.73;;;16.50;99.90;;;;;;4390262;32;20516;-62
2021/08/18 06:19:32;;;;;;;7.10;2.53;;;16.50;99.90;;;;;;4391076;32;20536;-62
2021/08/18 06:22:00;;;;;;;6.93;3.53;;;16.60;99.90;;;;;;4390762;32;20214;-62
2021/08/18 06:24:28;;;;;;;4.23;3.70;;;16.60;99.90;;;;;;4389755;32;20227;-61
2021/08/18 06:26:58;;;;;;;3.47;3.07;;;16.60;99.90;;;;;;4390158;32;20276;-61
2021/08/18 06:29:28;;;;;;;7.53;3.70;;;16.70;99.90;;;;;;4387374;32;20231;-63
2021/08/18 06:31:55;;;;;;;6.80;3.27;;;16.70;99.90;;;;;;4390382;32;20212;-61
2021/08/18 06:34:22;;;;;;;4.93;3.40;;;16.80;99.90;;;;;;4390512;32;20186;-64
2021/08/18 06:36:49;;;;;;;4.53;3.23;;;16.80;99.90;;;;;;4389921;32;20160;-63
2021/08/18 06:39:18;;;;;;;5.20;3.60;;;16.90;99.90;;;;;;4388979;32;20196;-63
2021/08/18 06:41:45;;;;;;;4.93;3.73;;;16.90;99.90;;;;;;4390442;32;20547;-62
2021/08/18 06:44:12;;;;;;;6.67;3.87;;;16.90;99.90;;;;;;4385030;32;20275;-62
2021/08/18 06:46:38;;;;;;;5.97;3.70;;;16.90;99.90;;;;;;4386631;32;20212;-62
2021/08/18 06:49:05;;;;;;;5.27;3.60;;;17.00;99.90;;;;;;4390521;32;20188;-61
2021/08/18 06:51:32;;;;;;;5.90;4.10;;;17.00;99.90;;;;;;4389614;32;20175;-61
2021/08/18 06:53:59;;;;;;;5.70;3.50;;;17.10;99.90;;;;;;4387945;32;20170;-61
2021/08/18 06:56:27;;;;;;;6.30;3.83;;;17.10;99.90;;;;;;4391152;32;20175;-61
2021/08/18 06:58:54;;;;;;;4.97;3.97;;;17.10;99.90;;;;;;4390932;32;20199;-61
2021/08/18 07:01:21;;;;;;;4.97;3.40;;;17.20;99.90;;;;;;4389144;32;20198;-60
2021/08/18 07:03:50;;;;;;;5.30;3.20;;;17.30;99.90;;;;;;4388341;32;20612;-62
2021/08/18 07:06:17;;;;;;;6.33;3.77;;;17.30;99.90;;;;;;4389194;32;20198;-62
2021/08/18 07:08:43;;;;;;;6.33;3.80;;;17.30;99.90;;;;;;4389652;32;20219;-61
2021/08/18 07:11:10;;;;;;;5.47;4.17;;;17.50;99.90;;;;;;4389367;32;20174;-61
2021/08/18 07:13:40;;;;;;;4.90;3.70;;;17.60;99.90;;;;;;4389521;32;20152;-61
2021/08/18 07:16:10;;;;;;;4.40;4.00;;;17.70;99.90;;;;;;4385501;32;20163;-61
2021/08/18 07:18:37;;;;;;;5.20;4.00;;;17.80;99.90;;;;;;4388787;32;20186;-62
2021/08/18 07:21:04;;;;;;;6.03;4.50;;;17.90;99.90;;;;;;4390054;32;20219;-62
2021/08/18 07:23:30;;;;;;;8.00;4.13;;;18.00;99.90;;;;;;4389880;32;20667;-61
2021/08/18 07:25:58;;;;;;;5.97;4.40;;;18.00;99.90;;;;;;4388428;32;20160;-60
2021/08/18 07:28:25;;;;;;;6.20;4.33;;;18.10;99.90;;;;;;4390706;32;20164;-61
2021/08/18 07:30:53;;;;;;;6.27;4.30;;;18.20;99.90;;;;;;4388643;32;20250;-61
2021/08/18 07:33:20;;;;;;;4.83;4.33;;;18.30;99.90;;;;;;4389933;32;20620;-62
2021/08/18 07:35:48;;;;;;;7.70;4.57;;;18.40;99.90;;;;;;4389444;32;20227;-60
2021/08/18 07:38:15;;;;;;;4.90;4.40;;;18.60;99.90;;;;;;4386810;32;20160;-59
2021/08/18 07:40:42;;;;;;;6.30;4.30;;;18.60;99.90;;;;;;4388274;32;20156;-59
2021/08/18 07:43:09;;;;;;;6.20;4.30;;;18.60;99.90;;;;;;4391800;32;20179;-63
2021/08/18 07:45:35;;;;;;;5.47;4.23;;;18.70;99.90;;;;;;4388086;32;20220;-62
2021/08/18 07:48:04;;;;;;;7.60;4.80;;;18.90;99.90;;;;;;4378461;32;20182;-60
2021/08/18 07:50:31;;;;;;;12.30;5.80;;;18.90;99.90;;;;;;4380254;32;20172;-63
2021/08/18 07:53:01;;;;;;;8.93;4.73;;;19.00;99.90;;;;;;4391063;32;20171;-63
2021/08/18 07:55:28;;;;;;;7.83;4.73;;;19.10;99.90;;;;;;4389400;32;20576;-62
2021/08/18 07:57:55;;;;;;;7.50;4.20;;;19.20;99.90;;;;;;4391614;32;20183;-62
2021/08/18 08:00:22;;;;;;;5.83;4.40;;;19.30;99.90;;;;;;4386665;32;20227;-60
2021/08/18 08:02:49;;;;;;;4.70;4.23;;;19.50;99.90;;;;;;4390503;32;20175;-62
2021/08/18 08:05:18;;;;;;;4.43;3.50;;;19.50;99.90;;;;;;4382537;32;20160;-61
2021/08/18 08:07:46;;;;;;;6.40;4.27;;;19.50;99.90;;;;;;4389151;32;20186;-63
2021/08/18 08:10:13;;;;;;;6.47;3.93;;;19.60;99.90;;;;;;4390372;32;20148;-63
2021/08/18 08:12:41;;;;;;;6.17;4.20;;;19.60;99.90;;;;;;4391013;32;20369;-62
2021/08/18 08:15:09;;;;;;;8.10;4.83;;;19.60;99.90;;;;;;4391388;32;20230;-60
2021/08/18 08:17:36;;;;;;;5.50;3.90;;;19.60;99.90;;;;;;4385602;32;20541;-62
2021/08/18 08:20:04;;;;;;;8.23;4.23;;;19.60;99.90;;;;;;4393185;32;20501;-61
2021/08/18 08:22:32;;;;;;;5.00;3.77;;;19.70;99.90;;;;;;4390389;32;20171;-62
2021/08/18 08:24:59;;;;;;;9.07;4.53;;;19.70;99.90;;;;;;4388147;32;20168;-63
2021/08/18 08:27:26;;;;;;;4.20;3.80;;;19.70;99.90;;;;;;4390154;32;20156;-63
2021/08/18 08:29:53;;;;;;;5.63;4.27;;;19.90;99.90;;;;;;4389324;32;20172;-63
2021/08/18 08:32:20;;;;;;;7.73;4.70;;;19.90;99.90;;;;;;4389313;32;20268;-62
2021/08/18 08:34:47;;;;;;;5.67;4.30;;;19.90;99.90;;;;;;4389896;32;20176;-63
2021/08/18 08:37:13;;;;;;;6.57;4.80;;;20.00;99.90;;;;;;4389648;32;20160;-64
2021/08/18 08:39:42;;;;;;;5.63;4.50;;;20.00;99.90;;;;;;4390811;32;20172;-63
2021/08/18 08:42:09;;;;;;;9.57;4.73;;;20.10;99.90;;;;;;4389482;32;20580;-61
2021/08/18 08:44:38;;;;;;;8.33;4.70;;;20.20;99.90;;;;;;4389970;32;20174;-63
2021/08/18 08:47:09;;;;;;;7.87;4.77;;;20.20;99.90;;;;;;4389409;32;20227;-61
2021/08/18 08:49:36;;;;;;;6.43;5.40;;;20.30;99.90;;;;;;4390522;32;20176;-61
2021/08/18 08:52:04;;;;;;;7.03;5.53;;;20.30;99.90;;;;;;4388882;32;20215;-61
2021/08/18 08:54:31;;;;;;;8.33;5.70;;;20.30;99.90;;;;;;4388618;32;20164;-61
2021/08/18 08:56:59;;;;;;;7.80;5.00;;;20.10;99.90;;;;;;4389182;32;20172;-63
2021/08/18 08:59:26;;;;;;;7.63;5.43;;;20.20;99.90;;;;;;4389101;32;20156;-61
2021/08/18 09:02:03;;;;;;;10.23;6.27;;;20.30;99.90;;;;;;4390120;32;20222;-61
2021/08/18 09:04:31;;;;;;;8.17;5.00;;;20.50;99.90;;;;;;4387069;32;20172;-61
2021/08/18 09:07:09;;;;;;;7.57;5.57;;;20.50;99.90;;;;;;4389087;32;20839;-62
2021/08/18 09:09:38;;;;;;;9.97;5.20;;;20.60;99.90;;;;;;4386402;32;20227;-63
2021/08/18 09:12:08;;;;;;;9.90;6.33;;;20.60;99.90;;;;;;4386483;32;20227;-62
2021/08/18 09:14:36;;;;;;;6.03;5.23;;;20.70;99.90;;;;;;4389326;32;20267;-62
2021/08/18 09:17:03;;;;;;;7.47;6.37;;;20.80;99.90;;;;;;4388834;32;20160;-61
2021/08/18 09:19:30;;;;;;;10.83;6.53;;;20.90;99.90;;;;;;4390511;32;20538;-62
2021/08/18 09:22:06;;;;;;;8.23;6.67;;;21.30;99.90;;;;;;4390434;32;20275;-61
2021/08/18 09:24:33;;;;;;;7.00;6.30;;;21.40;99.90;;;;;;4388046;32;20174;-62
2021/08/18 09:27:06;;;;;;;10.97;7.20;;;21.40;99.90;;;;;;4390005;32;20195;-62
2021/08/18 09:29:44;;;;;;;11.00;6.00;;;21.50;99.90;;;;;;4387611;32;20603;-62
2021/08/18 09:32:26;;;;;;;8.67;6.03;;;21.50;99.90;;;;;;4387281;32;20151;-62
2021/08/18 09:34:55;;;;;;;6.90;5.57;;;21.50;99.90;;;;;;4386609;32;20175;-62
2021/08/18 09:37:23;;;;;;;7.80;6.77;;;21.60;99.90;;;;;;4386357;32;20161;-61
2021/08/18 09:39:50;;;;;;;7.00;6.30;;;21.40;99.90;;;;;;4387732;32;20160;-63
2021/08/18 09:42:29;;;;;;;8.37;7.43;;;21.00;99.90;;;;;;4387016;32;20171;-62
2021/08/18 09:45:15;;;;;;;10.10;7.20;;;20.80;99.90;;;;;;4385383;32;20279;-62
2021/08/18 09:47:58;;;;;;;7.67;6.87;;;20.50;99.90;;;;;;4388579;32;20180;-61
2021/08/18 09:50:26;;;;;;;12.40;8.97;;;20.40;99.90;;;;;;4389279;32;20195;-63
2021/08/18 09:52:54;;;;;;;10.57;7.77;;;20.30;99.90;;;;;;4387756;32;20235;-62
2021/08/18 09:55:24;;;;;;;10.47;9.23;;;20.20;99.90;;;;;;4389041;32;20302;-63
2021/08/18 09:57:52;;;;;;;11.07;9.07;;;20.00;99.90;;;;;;4389443;32;20291;-63
2021/08/18 10:00:20;;;;;;;10.57;8.77;;;19.90;99.90;;;;;;4389246;32;20152;-62
2021/08/18 10:02:48;;;;;;;9.83;8.63;;;19.90;99.90;;;;;;4389235;32;20569;-62
2021/08/18 10:05:15;;;;;;;11.47;9.70;;;19.80;99.90;;;;;;4386384;32;20186;-61
2021/08/18 10:07:44;;;;;;;9.17;8.27;;;19.50;99.90;;;;;;4386879;32;20141;-63
2021/08/18 10:10:12;;;;;;;11.10;10.00;;;19.10;99.90;;;;;;4390684;32;20175;-61
2021/08/18 10:12:39;;;;;;;11.80;10.60;;;18.70;99.90;;;;;;4387471;32;20201;-63
2021/08/18 10:15:07;;;;;;;12.37;9.57;;;18.50;99.90;;;;;;4388936;32;20184;-62
2021/08/18 10:17:41;;;;;;;13.60;10.13;;;18.30;99.90;;;;;;4388122;32;20190;-61
2021/08/18 10:20:10;;;;;;;11.10;9.83;;;18.30;99.90;;;;;;4386265;32;20244;-61
2021/08/18 10:22:38;;;;;;;11.03;9.53;;;18.10;99.90;;;;;;4385343;32;20199;-63
2021/08/18 10:25:39;;;;;;;10.97;9.23;;;18.00;99.90;;;;;;4387682;32;20213;-60
2021/08/18 10:28:09;;;;;;;10.07;9.07;;;17.90;99.90;;;;;;4354642;33;20224;-60
2021/08/18 10:30:50;;;;;;;11.20;9.87;;;17.90;99.90;;;;;;4357382;32;20598;-62
2021/08/18 10:34:03;;;;;;;11.90;9.13;;;17.90;99.90;;;;;;4355702;33;20498;-62
2021/08/18 10:37:02;;;;;;;14.63;11.53;;;17.90;99.90;;;;;;4298181;33;20170;-64
2021/08/18 10:39:34;;;;;;;13.53;10.80;;;17.70;99.90;;;;;;4295899;33;20181;-61
2021/08/18 10:42:03;;;;;;;22.07;12.33;;;17.70;99.90;;;;;;4298155;33;20158;-60
2021/08/18 10:44:40;;;;;;;13.10;10.47;;;17.60;99.90;;;;;;4297292;33;20660;-60
2021/08/18 10:47:19;;;;;;;15.20;10.67;;;17.60;99.90;;;;;;4297208;33;20204;-60
2021/08/18 10:49:47;;;;;;;12.23;10.90;;;17.50;99.90;;;;;;4298826;33;20256;-61
2021/08/18 10:52:48;;;;;;;15.80;10.97;;;17.60;99.90;;;;;;4299457;33;20585;-60
2021/08/18 10:55:17;;;;;;;12.43;10.03;;;17.90;99.90;;;;;;4298144;33;20337;-63
2021/08/18 10:57:48;;;;;;;14.60;11.23;;;18.30;99.90;;;;;;4300943;33;20671;-60
2021/08/18 11:00:24;;;;;;;15.50;11.20;;;18.60;99.90;;;;;;4336386;33;20203;-63
2021/08/18 11:03:00;;;;;;;17.73;12.20;;;18.70;99.90;;;;;;4340275;33;20602;-64
2021/08/18 11:05:31;;;;;;;18.93;11.63;;;18.80;99.90;;;;;;4319153;32;1666329;-61
2021/08/18 11:08:11;;;;;;;15.83;12.03;;;19.00;99.90;;;;;;4373112;32;20503;-62
2021/08/18 11:10:41;;;;;;;14.80;10.77;;;19.20;99.90;;;;;;4372831;32;20596;-63
2021/08/18 11:13:09;;;;;;;16.73;12.37;;;19.30;99.90;;;;;;4373524;32;20615;-61
2021/08/18 11:15:53;;;;;;;17.87;11.97;;;19.50;99.90;;;;;;4370835;32;20199;-61
2021/08/18 11:18:21;;;;;;;14.57;11.90;;;19.60;99.90;;;;;;4373627;32;20224;-64
2021/08/18 11:20:51;;;;;;;18.00;13.13;;;19.90;99.90;;;;;;4375667;32;20223;-62
2021/08/18 11:23:28;;;;;;;18.50;12.30;;;20.10;99.90;;;;;;4373499;32;20214;-62
2021/08/18 11:26:07;;;;;;;13.50;11.17;;;20.20;99.90;;;;;;4372833;32;20199;-61
2021/08/18 11:28:36;;;;;;;12.80;10.10;;;20.50;99.90;;;;;;4369985;32;20372;-62
2021/08/18 11:31:10;;;;;;;12.67;9.37;;;20.60;99.90;;;;;;4372194;32;20239;-61
2021/08/18 11:33:37;;;;;;;11.43;8.27;;;21.20;99.90;;;;;;4371595;32;20172;-63
2021/08/18 11:36:14;;;;;;;9.70;7.97;;;21.60;99.90;;;;;;4373016;32;20175;-62
2021/08/18 11:38:42;;;;;;;13.10;8.13;;;21.70;99.90;;;;;;4371286;32;20661;-64
2021/08/18 11:41:09;;;;;;;9.50;7.90;;;22.10;99.90;;;;;;4373671;32;20180;-63
2021/08/18 11:43:37;;;;;;;11.07;8.00;;;21.80;99.90;;;;;;4371595;32;20211;-64
2021/08/18 11:46:05;;;;;;;13.57;9.13;;;22.10;99.90;;;;;;4372785;32;20611;-62
2021/08/18 11:48:33;;;;;;;11.73;8.93;;;22.60;99.90;;;;;;4374303;32;20161;-62
2021/08/18 11:51:01;;;;;;;13.17;8.50;;;22.80;99.90;;;;;;4373978;32;20649;-62
2021/08/18 11:53:28;;;;;;;11.30;8.53;;;22.40;99.90;;;;;;4373104;32;20168;-62
2021/08/18 11:56:01;;;;;;;8.20;7.20;;;21.70;99.90;;;;;;4373503;32;20216;-64
2021/08/18 11:58:32;;;;;;;9.10;7.40;;;21.30;99.90;;;;;;4373902;32;20187;-62
2021/08/18 12:01:03;;;;;;;11.23;8.17;;;21.30;99.90;;;;;;4373789;32;20164;-62
2021/08/18 12:03:31;;;;;;;9.47;7.13;;;21.30;99.90;;;;;;4371709;32;20191;-62
2021/08/18 12:06:02;;;;;;;12.37;8.37;;;21.30;99.90;;;;;;4370186;32;20152;-64
2021/08/18 12:08:37;;;;;;;12.10;7.67;;;21.50;99.90;;;;;;4370429;32;20212;-63
2021/08/18 12:11:07;;;;;;;9.07;6.77;;;22.00;99.90;;;;;;4371304;32;20164;-65
2021/08/18 12:13:42;;;;;;;6.47;4.33;;;22.40;99.90;;;;;;4371415;32;20223;-63
2021/08/18 12:16:29;;;;;;;4.80;4.17;;;22.30;99.90;;;;;;4368025;32;20273;-63
2021/08/18 12:19:15;;;;;;;7.00;4.30;;;22.30;99.90;;;;;;4372667;32;20218;-62
2021/08/18 12:21:44;;;;;;;6.13;4.53;;;22.10;99.90;;;;;;4365339;32;20199;-62
2021/08/18 12:24:13;;;;;;;7.23;4.93;;;22.10;99.90;;;;;;4369220;32;20499;-64
2021/08/18 12:26:45;;;;;;;6.60;5.50;;;22.30;99.90;;;;;;4375313;32;20608;-62
2021/08/18 12:29:17;;;;;;;6.60;5.10;;;22.20;99.90;;;;;;4374644;32;20161;-63
2021/08/18 12:31:59;;;;;;;7.83;5.40;;;21.90;99.90;;;;;;4373432;32;20251;-63
2021/08/18 12:34:31;;;;;;;8.43;5.23;;;21.70;99.90;;;;;;4373158;32;20191;-62
2021/08/18 12:37:02;;;;;;;6.20;4.43;;;22.00;99.90;;;;;;4373619;32;20216;-62
2021/08/18 12:39:34;;;;;;;10.43;4.90;;;22.40;99.90;;;;;;4373634;32;20506;-62
2021/08/18 12:42:05;;;;;;;8.10;5.27;;;22.70;99.90;;;;;;4373324;32;20160;-64
2021/08/18 12:44:34;;;;;;;8.47;4.63;;;22.70;99.90;;;;;;4371998;32;20156;-63
2021/08/18 12:47:12;;;;;;;6.33;4.53;;;22.30;99.90;;;;;;4371738;32;20164;-62
2021/08/18 12:49:47;;;;;;;5.87;3.90;;;21.90;99.90;;;;;;4374091;32;20632;-62
2021/08/18 12:52:16;;;;;;;6.73;4.90;;;22.00;99.90;;;;;;4374440;32;20581;-62